East Thetford, Vermont
Current Conditions -  °F | °C
As of 4:53 AM on Saturday 20 Dec 2014 (Local Time) from KLEB Reporting Station
Clear Clear  
Wind Chill: 15°   Ceiling: Unl
Heat Index: 15°   Visibility: 10mi
Dew Point: 12°   Wind: 0mph
Humidity: 88%   Direction: NA
Pressure: 30.23"   Gusts: NA
Location:  43.81°N, 72.19°W
Report Text: KLEB 200953Z AUTO 00000KT 10SM CLR M09/M11 A3023 RMK AO2 SLP252 T10941111
Loading
Personal Weather Stations






























Interactive Weather Map New forecast layout! Learn more

10-Day Weather Forecast

Advertisements
Track Severe Weather on mobile